createdAt,value
2022-10-05T00:01:27.395Z,99.21
2022-10-05T00:03:59.127Z,99.21
2022-10-05T00:06:28.429Z,99.16
2022-10-05T00:08:54.997Z,99.12
2022-10-05T00:11:21.593Z,99.12
2022-10-05T00:13:48.244Z,99.31
2022-10-05T00:16:19.642Z,100.00
2022-10-05T00:18:48.371Z,100.00
2022-10-05T00:21:26.287Z,100.00
2022-10-05T00:23:54.126Z,99.61
2022-10-05T00:26:22.216Z,99.27
2022-10-05T00:28:48.868Z,99.28
2022-10-05T00:31:17.414Z,99.30
2022-10-05T00:33:44.045Z,99.25
2022-10-05T00:36:10.968Z,99.28
2022-10-05T00:38:37.616Z,99.18
2022-10-05T00:41:07.420Z,99.99
2022-10-05T00:43:40.226Z,100.00
2022-10-05T00:46:11.043Z,100.00
2022-10-05T00:48:52.918Z,99.93
2022-10-05T00:51:22.221Z,99.69
2022-10-05T00:54:01.145Z,99.90
2022-10-05T00:56:46.719Z,99.67
2022-10-05T00:59:16.454Z,100.00
2022-10-05T01:01:51.028Z,100.00
2022-10-05T01:04:20.672Z,100.00
2022-10-05T01:06:47.522Z,100.00
2022-10-05T01:09:26.609Z,100.00
2022-10-05T01:11:59.185Z,100.00
2022-10-05T01:14:28.930Z,99.88
2022-10-05T01:17:10.938Z,100.00
2022-10-05T01:19:37.550Z,100.00
2022-10-05T01:22:13.003Z,100.00
2022-10-05T01:24:43.567Z,100.00
2022-10-05T01:27:30.652Z,100.00
2022-10-05T01:30:02.826Z,100.00
2022-10-05T01:32:33.216Z,100.00
2022-10-05T01:34:59.765Z,100.00
2022-10-05T01:37:29.367Z,100.00
2022-10-05T01:40:11.189Z,100.00
2022-10-05T01:42:46.408Z,100.00
2022-10-05T01:45:24.876Z,100.00
2022-10-05T01:47:57.293Z,100.00
2022-10-05T01:50:42.506Z,100.00
2022-10-05T01:53:20.912Z,100.00
2022-10-05T01:55:47.463Z,100.00
2022-10-05T01:58:27.113Z,100.00
2022-10-05T02:00:53.687Z,100.00
2022-10-05T02:03:37.067Z,100.00
2022-10-05T02:06:15.676Z,100.00
2022-10-05T02:09:00.965Z,100.00
2022-10-05T02:11:27.704Z,100.00
2022-10-05T02:14:08.607Z,100.00
2022-10-05T02:16:38.851Z,100.00
2022-10-05T02:19:25.683Z,100.00
2022-10-05T02:21:59.106Z,100.00
2022-10-05T02:24:29.035Z,100.00
2022-10-05T02:26:56.625Z,100.00
2022-10-05T02:29:26.376Z,100.00
2022-10-05T02:31:57.350Z,100.00
2022-10-05T02:34:27.040Z,100.00
2022-10-05T02:37:01.815Z,100.00
2022-10-05T02:39:33.095Z,100.00
2022-10-05T02:42:18.386Z,100.00
2022-10-05T02:45:05.665Z,100.00
2022-10-05T02:47:44.254Z,100.00
2022-10-05T02:50:16.872Z,100.00
2022-10-05T02:52:49.439Z,100.00
2022-10-05T02:55:19.352Z,100.00
2022-10-05T02:57:45.970Z,100.00
2022-10-05T03:00:17.741Z,100.00
2022-10-05T03:03:03.090Z,100.00
2022-10-05T03:05:32.502Z,100.00
2022-10-05T03:08:05.919Z,100.00
2022-10-05T03:10:57.871Z,100.00
2022-10-05T03:13:30.620Z,100.00
2022-10-05T03:15:57.271Z,100.00
2022-10-05T03:18:26.339Z,100.00
2022-10-05T03:21:12.116Z,100.00
2022-10-05T03:23:38.706Z,100.00
2022-10-05T03:26:13.686Z,100.00
2022-10-05T03:28:47.063Z,100.00
2022-10-05T03:31:13.659Z,100.00
2022-10-05T03:34:12.801Z,100.00
2022-10-05T03:36:49.545Z,100.00
2022-10-05T03:39:19.237Z,100.00
2022-10-05T03:42:02.210Z,100.00
2022-10-05T03:44:36.681Z,100.00
2022-10-05T03:47:41.565Z,100.00
2022-10-05T03:50:24.259Z,100.00
2022-10-05T03:52:59.979Z,100.00
2022-10-05T03:55:35.555Z,100.00
2022-10-05T03:58:15.952Z,100.00
2022-10-05T04:00:45.213Z,100.00
2022-10-05T04:03:27.230Z,100.00
2022-10-05T04:05:55.639Z,100.00
2022-10-05T04:08:44.113Z,100.00
2022-10-05T04:11:20.545Z,100.00
2022-10-05T04:13:55.357Z,100.00
2022-10-05T04:16:31.488Z,100.00
2022-10-05T04:19:03.012Z,100.00
2022-10-05T04:21:35.216Z,100.00
2022-10-05T04:24:09.427Z,100.00
2022-10-05T04:26:38.844Z,100.00
2022-10-05T04:29:12.890Z,100.00
2022-10-05T04:31:48.672Z,100.00
2022-10-05T04:34:35.645Z,100.00
2022-10-05T04:37:05.268Z,100.00
2022-10-05T04:39:43.799Z,100.00
2022-10-05T04:42:16.677Z,100.00
2022-10-05T04:44:46.032Z,100.00
2022-10-05T04:47:22.616Z,100.00
2022-10-05T04:50:07.840Z,100.00
2022-10-05T04:52:46.889Z,100.00
2022-10-05T04:55:16.445Z,100.00
2022-10-05T04:57:43.068Z,100.00
2022-10-05T05:00:17.196Z,100.00
2022-10-05T05:02:49.991Z,100.00
2022-10-05T05:05:27.557Z,100.00
2022-10-05T05:08:03.834Z,100.00
2022-10-05T05:10:30.358Z,100.00
2022-10-05T05:13:15.704Z,100.00
2022-10-05T05:16:17.767Z,100.00
2022-10-05T05:18:44.414Z,100.00
2022-10-05T05:21:27.141Z,100.00
2022-10-05T05:23:53.779Z,100.00
2022-10-05T05:26:39.151Z,100.00
2022-10-05T05:29:05.899Z,100.00
2022-10-05T05:31:47.335Z,100.00
2022-10-05T05:34:29.499Z,100.00
2022-10-05T05:37:14.574Z,100.00
2022-10-05T05:39:59.753Z,100.00
2022-10-05T05:42:34.309Z,100.00
2022-10-05T05:45:06.773Z,100.00
2022-10-05T05:47:37.975Z,100.00
2022-10-05T05:50:20.069Z,100.00
2022-10-05T05:52:49.529Z,100.00
2022-10-05T05:55:20.326Z,100.00
2022-10-05T05:57:50.130Z,100.00
2022-10-05T06:00:17.700Z,100.00
2022-10-05T06:02:44.298Z,100.00
2022-10-05T06:05:26.256Z,100.00
2022-10-05T06:07:53.935Z,100.00
2022-10-05T06:10:34.967Z,100.00
2022-10-05T06:13:05.564Z,100.00
2022-10-05T06:15:38.741Z,100.00
2022-10-05T06:18:10.560Z,100.00
2022-10-05T06:20:40.623Z,100.00
2022-10-05T06:23:16.989Z,100.00
2022-10-05T06:25:57.214Z,100.00
2022-10-05T06:28:25.348Z,100.00
2022-10-05T06:30:57.749Z,100.00
2022-10-05T06:33:27.147Z,100.00
2022-10-05T06:35:56.522Z,100.00
2022-10-05T06:38:46.500Z,100.00
2022-10-05T06:41:31.680Z,100.00
2022-10-05T06:44:00.567Z,100.00
2022-10-05T06:46:32.328Z,100.00
2022-10-05T06:49:25.123Z,100.00
2022-10-05T06:51:55.393Z,100.00
2022-10-05T06:54:31.212Z,100.00
2022-10-05T06:57:12.985Z,100.00
2022-10-05T06:59:45.809Z,100.00
2022-10-05T07:02:18.483Z,100.00
2022-10-05T07:04:45.077Z,100.00
2022-10-05T07:07:29.860Z,100.00
2022-10-05T07:10:02.441Z,100.00
2022-10-05T07:12:32.889Z,100.00
2022-10-05T07:15:03.182Z,100.00
2022-10-05T07:17:42.506Z,100.00
2022-10-05T07:20:09.108Z,100.00
2022-10-05T07:22:43.033Z,100.00
2022-10-05T07:25:15.786Z,100.00
2022-10-05T07:28:05.371Z,100.00
2022-10-05T07:30:38.245Z,99.80
2022-10-05T07:33:20.885Z,100.00
2022-10-05T07:36:17.561Z,100.00
2022-10-05T07:38:59.430Z,100.00
2022-10-05T07:41:47.724Z,100.00
2022-10-05T07:44:22.795Z,100.00
2022-10-05T07:46:54.793Z,100.00
2022-10-05T07:49:40.013Z,100.00
2022-10-05T07:52:11.397Z,100.00
2022-10-05T07:54:38.067Z,100.00
2022-10-05T07:57:16.959Z,100.00
2022-10-05T07:59:56.489Z,100.00
2022-10-05T08:02:33.533Z,100.00
2022-10-05T08:05:12.751Z,100.00
2022-10-05T08:07:39.627Z,100.00
2022-10-05T08:10:06.224Z,100.00
2022-10-05T08:12:38.961Z,100.00
2022-10-05T08:15:25.848Z,100.00
2022-10-05T08:18:00.085Z,100.00
2022-10-05T08:20:35.912Z,100.00
2022-10-05T08:23:08.987Z,100.00
2022-10-05T08:25:41.877Z,100.00
2022-10-05T08:28:14.494Z,100.00
2022-10-05T08:30:59.506Z,100.00
2022-10-05T08:33:27.901Z,100.00
2022-10-05T08:36:10.783Z,100.00
2022-10-05T08:38:37.701Z,100.00
2022-10-05T08:41:35.565Z,100.00
2022-10-05T08:44:31.369Z,100.00
2022-10-05T08:47:00.874Z,100.00
2022-10-05T08:49:28.990Z,100.00
2022-10-05T08:52:23.369Z,100.00
2022-10-05T08:55:02.027Z,100.00
2022-10-05T08:57:49.022Z,100.00
2022-10-05T09:00:22.524Z,100.00
2022-10-05T09:02:49.248Z,100.00
2022-10-05T09:05:18.741Z,100.00
2022-10-05T09:07:51.274Z,100.00
2022-10-05T09:10:17.854Z,100.00
2022-10-05T09:12:47.661Z,100.00
2022-10-05T09:15:27.818Z,98.65
2022-10-05T09:18:07.291Z,97.25
2022-10-05T09:20:37.018Z,95.13
2022-10-05T09:23:16.576Z,95.82
2022-10-05T09:26:01.817Z,95.71
2022-10-05T09:28:32.990Z,93.36
2022-10-05T09:31:05.844Z,94.36
2022-10-05T09:33:38.645Z,95.24
2022-10-05T09:36:05.249Z,95.74
2022-10-05T09:38:50.393Z,96.73
2022-10-05T09:41:32.142Z,96.85
2022-10-05T09:44:11.348Z,95.98
2022-10-05T09:46:56.424Z,96.06
2022-10-05T09:49:23.016Z,94.97
2022-10-05T09:51:55.829Z,95.07
2022-10-05T09:54:43.708Z,94.83
2022-10-05T09:57:13.041Z,94.96
2022-10-05T10:00:09.526Z,94.75
2022-10-05T10:02:56.884Z,95.26
2022-10-05T10:05:42.536Z,93.81
2022-10-05T10:08:15.106Z,94.18
2022-10-05T10:11:00.175Z,95.29
2022-10-05T10:13:45.735Z,94.65
2022-10-05T10:16:35.727Z,94.21
2022-10-05T10:19:02.282Z,94.89
2022-10-05T10:21:29.528Z,91.67
2022-10-05T10:24:14.889Z,93.22
2022-10-05T10:27:00.195Z,88.32
2022-10-05T10:29:37.683Z,87.42
2022-10-05T10:32:04.314Z,90.19
2022-10-05T10:34:30.863Z,90.09
2022-10-05T10:37:23.707Z,90.53
2022-10-05T10:39:59.518Z,91.12
2022-10-05T10:42:39.899Z,91.16
2022-10-05T10:45:26.260Z,88.60
2022-10-05T10:47:53.227Z,88.59
2022-10-05T10:50:29.305Z,76.50
2022-10-05T10:53:20.581Z,72.79
2022-10-05T10:55:56.609Z,70.89
2022-10-05T10:58:42.215Z,67.06
2022-10-05T11:01:25.118Z,73.47
2022-10-05T11:03:54.526Z,75.69
2022-10-05T11:06:26.342Z,77.86
2022-10-05T11:09:19.100Z,76.16
2022-10-05T11:12:04.292Z,60.07
2022-10-05T11:14:42.422Z,58.62
2022-10-05T11:17:18.460Z,56.70
2022-10-05T11:20:05.186Z,65.28
2022-10-05T11:22:41.297Z,67.65
2022-10-05T11:25:35.410Z,71.47
2022-10-05T11:28:13.445Z,74.42
2022-10-05T11:30:46.131Z,75.84
2022-10-05T11:33:26.393Z,77.31
2022-10-05T11:35:55.885Z,79.06
2022-10-05T11:38:28.477Z,80.57
2022-10-05T11:40:58.133Z,81.89
2022-10-05T11:43:25.101Z,82.57
2022-10-05T11:45:51.716Z,84.65
2022-10-05T11:48:21.365Z,85.13
2022-10-05T11:51:03.187Z,86.37
2022-10-05T11:53:35.995Z,86.72
2022-10-05T11:56:02.691Z,88.33
2022-10-05T11:58:32.589Z,87.21
2022-10-05T12:01:05.693Z,85.70
2022-10-05T12:03:41.383Z,90.10
2022-10-05T12:06:15.826Z,93.77
2022-10-05T12:09:00.678Z,95.88
2022-10-05T12:11:42.804Z,97.22
2022-10-05T12:14:12.448Z,98.18
2022-10-05T12:16:49.823Z,99.25
2022-10-05T12:19:42.865Z,98.85
2022-10-05T12:22:10.723Z,99.65
2022-10-05T12:24:37.307Z,99.87
2022-10-05T12:27:06.782Z,100.00
2022-10-05T12:29:33.464Z,98.61
2022-10-05T12:32:18.743Z,99.03
2022-10-05T12:34:48.798Z,97.87
2022-10-05T12:37:33.867Z,94.70
2022-10-05T12:40:00.406Z,91.79
2022-10-05T12:42:46.073Z,88.26
2022-10-05T12:45:30.923Z,88.69
2022-10-05T12:48:08.405Z,89.20
2022-10-05T12:50:36.846Z,91.46
2022-10-05T12:53:15.361Z,89.78
2022-10-05T12:56:00.670Z,90.41
2022-10-05T12:58:27.297Z,90.55
2022-10-05T13:00:57.429Z,90.55
2022-10-05T13:03:24.029Z,90.97
2022-10-05T13:06:04.073Z,90.98
2022-10-05T13:08:41.975Z,92.08
2022-10-05T13:11:12.724Z,93.29
2022-10-05T13:14:02.458Z,90.30
2022-10-05T13:16:33.823Z,91.53
2022-10-05T13:19:09.737Z,88.20
2022-10-05T13:21:55.238Z,89.64
2022-10-05T13:24:26.685Z,90.20
2022-10-05T13:26:56.129Z,90.42
2022-10-05T13:29:34.810Z,91.39
2022-10-05T13:32:10.488Z,91.08
2022-10-05T13:34:40.278Z,90.80
2022-10-05T13:37:09.681Z,91.80
2022-10-05T13:39:49.504Z,92.20
2022-10-05T13:42:19.273Z,92.31
2022-10-05T13:44:45.867Z,92.80
2022-10-05T13:47:35.104Z,93.05
2022-10-05T13:50:20.524Z,92.62
2022-10-05T13:53:02.459Z,91.86
2022-10-05T13:55:38.418Z,91.44
2022-10-05T13:58:34.720Z,91.90
2022-10-05T14:01:14.881Z,92.02
2022-10-05T14:04:03.931Z,92.33
2022-10-05T14:06:31.083Z,93.63
2022-10-05T14:09:00.314Z,94.71
2022-10-05T14:11:31.340Z,95.28
2022-10-05T14:14:04.526Z,94.00
2022-10-05T14:16:33.461Z,94.27
2022-10-05T14:19:06.375Z,94.34
2022-10-05T14:21:42.834Z,95.21
2022-10-05T14:24:42.412Z,95.58
2022-10-05T14:27:33.885Z,96.06
2022-10-05T14:30:09.598Z,94.60
2022-10-05T14:32:48.061Z,94.87
2022-10-05T14:35:16.037Z,96.12
2022-10-05T14:37:44.423Z,94.14
2022-10-05T14:40:40.186Z,94.60
2022-10-05T14:43:15.816Z,95.00
2022-10-05T14:45:58.692Z,93.94
2022-10-05T14:48:28.060Z,94.55
2022-10-05T14:50:59.599Z,95.21
2022-10-05T14:53:38.003Z,95.30
2022-10-05T14:56:17.746Z,94.89
2022-10-05T14:59:04.161Z,93.82
2022-10-05T15:01:39.357Z,94.90
2022-10-05T15:04:05.964Z,94.08
2022-10-05T15:06:44.972Z,94.54
2022-10-05T15:09:24.739Z,94.79
2022-10-05T15:11:53.302Z,95.33
2022-10-05T15:14:22.867Z,95.29
2022-10-05T15:17:02.615Z,95.90
2022-10-05T15:19:47.304Z,96.12
2022-10-05T15:22:22.822Z,94.50
2022-10-05T15:24:59.144Z,94.65
2022-10-05T15:27:26.246Z,94.46
2022-10-05T15:29:59.834Z,93.85
2022-10-05T15:32:29.432Z,93.74
2022-10-05T15:35:03.999Z,93.56
2022-10-05T15:37:33.404Z,93.35
2022-10-05T15:40:01.333Z,93.47
2022-10-05T15:42:36.483Z,93.26
2022-10-05T15:45:06.583Z,93.80
2022-10-05T15:47:56.312Z,93.74
2022-10-05T15:50:26.321Z,93.62
2022-10-05T15:52:55.788Z,93.76
2022-10-05T15:55:22.385Z,93.90
2022-10-05T15:58:08.493Z,94.35
2022-10-05T16:00:47.422Z,94.20
2022-10-05T16:03:32.612Z,94.23
2022-10-05T16:06:24.592Z,93.67
2022-10-05T16:09:01.176Z,93.89
2022-10-05T16:11:33.241Z,93.57
2022-10-05T16:14:18.685Z,93.41
2022-10-05T16:17:08.406Z,92.31
2022-10-05T16:19:46.212Z,92.47
2022-10-05T16:22:27.770Z,93.23
2022-10-05T16:25:00.534Z,92.72
2022-10-05T16:27:29.954Z,92.27
2022-10-05T16:30:09.548Z,92.66
2022-10-05T16:32:50.773Z,93.46
2022-10-05T16:35:30.193Z,94.47
2022-10-05T16:37:56.934Z,93.84
2022-10-05T16:40:40.298Z,92.34
2022-10-05T16:43:25.790Z,92.46
2022-10-05T16:46:01.948Z,92.75
2022-10-05T16:48:36.776Z,92.14
2022-10-05T16:51:12.295Z,91.97
2022-10-05T16:53:42.365Z,92.34
2022-10-05T16:56:14.975Z,90.78
2022-10-05T16:58:47.563Z,90.85
2022-10-05T17:01:42.280Z,90.35
2022-10-05T17:04:12.205Z,90.80
2022-10-05T17:06:48.064Z,90.98
2022-10-05T17:09:33.432Z,91.37
2022-10-05T17:12:26.831Z,91.83
2022-10-05T17:14:53.456Z,92.16
2022-10-05T17:17:20.727Z,91.88
2022-10-05T17:19:50.077Z,92.29
2022-10-05T17:22:31.471Z,92.75
2022-10-05T17:25:00.851Z,93.54
2022-10-05T17:27:50.655Z,93.22
2022-10-05T17:30:20.548Z,93.75
2022-10-05T17:33:14.316Z,91.68
2022-10-05T17:36:06.293Z,91.75
2022-10-05T17:38:35.542Z,92.35
2022-10-05T17:41:37.088Z,92.22
2022-10-05T17:44:16.361Z,92.29
2022-10-05T17:46:48.308Z,92.65
2022-10-05T17:49:22.927Z,93.11
2022-10-05T17:52:11.079Z,92.06
2022-10-05T17:55:05.148Z,92.32
2022-10-05T17:57:32.110Z,92.44
2022-10-05T18:00:00.762Z,93.03
2022-10-05T18:02:36.821Z,92.96
2022-10-05T18:05:06.582Z,93.14
2022-10-05T18:07:36.880Z,93.72
2022-10-05T18:10:12.331Z,93.58
2022-10-05T18:12:41.593Z,93.66
2022-10-05T18:15:08.178Z,93.87
2022-10-05T18:17:35.172Z,94.36
2022-10-05T18:20:10.593Z,94.40
2022-10-05T18:22:37.189Z,94.13
2022-10-05T18:25:07.944Z,94.17
2022-10-05T18:27:48.563Z,94.25
2022-10-05T18:30:38.407Z,95.17
2022-10-05T18:33:25.424Z,95.66
2022-10-05T18:36:07.365Z,95.67
2022-10-05T18:38:40.248Z,95.97
2022-10-05T18:41:12.982Z,95.99
2022-10-05T18:43:58.401Z,96.23
2022-10-05T18:46:32.278Z,96.85
2022-10-05T18:49:07.975Z,96.93
2022-10-05T18:51:54.765Z,97.18
2022-10-05T18:54:47.061Z,97.38
2022-10-05T18:57:34.406Z,96.72
2022-10-05T19:00:04.036Z,97.12
2022-10-05T19:02:38.629Z,96.74
2022-10-05T19:05:23.825Z,96.87
2022-10-05T19:08:17.476Z,97.01
2022-10-05T19:10:45.837Z,96.95
2022-10-05T19:13:18.361Z,97.23
2022-10-05T19:15:44.983Z,97.16
2022-10-05T19:18:30.762Z,97.18
2022-10-05T19:21:17.046Z,96.75
2022-10-05T19:24:01.868Z,96.71
2022-10-05T19:26:43.234Z,96.62
2022-10-05T19:29:12.722Z,96.52
2022-10-05T19:31:49.328Z,96.49
2022-10-05T19:34:22.236Z,96.68
2022-10-05T19:37:08.073Z,96.90
2022-10-05T19:39:43.253Z,96.83
2022-10-05T19:42:28.184Z,96.54
2022-10-05T19:44:57.919Z,96.57
2022-10-05T19:47:28.323Z,96.50
2022-10-05T19:49:55.680Z,97.14
2022-10-05T19:52:24.949Z,97.42
2022-10-05T19:55:01.986Z,97.79
2022-10-05T19:57:31.671Z,98.63
2022-10-05T19:59:58.657Z,98.87
2022-10-05T20:02:25.730Z,98.92
2022-10-05T20:04:55.057Z,99.48
2022-10-05T20:07:22.934Z,99.90
2022-10-05T20:09:53.938Z,99.59
2022-10-05T20:12:22.915Z,100.00
2022-10-05T20:15:23.686Z,100.00
2022-10-05T20:18:08.820Z,100.00
2022-10-05T20:20:36.987Z,100.00
2022-10-05T20:23:23.513Z,100.00
2022-10-05T20:26:10.480Z,100.00
2022-10-05T20:28:37.533Z,100.00
2022-10-05T20:31:06.576Z,100.00
2022-10-05T20:33:34.467Z,100.00
2022-10-05T20:36:03.689Z,100.00
2022-10-05T20:38:31.668Z,100.00
2022-10-05T20:40:58.535Z,100.00
2022-10-05T20:43:25.115Z,100.00
2022-10-05T20:45:52.321Z,100.00
2022-10-05T20:48:19.574Z,100.00
2022-10-05T20:50:47.336Z,100.00
2022-10-05T20:53:14.089Z,100.00
2022-10-05T20:55:40.754Z,100.00
2022-10-05T20:58:09.042Z,100.00
2022-10-05T21:00:54.133Z,100.00
2022-10-05T21:03:20.740Z,100.00
2022-10-05T21:05:47.377Z,100.00
2022-10-05T21:08:14.168Z,100.00
2022-10-05T21:10:40.822Z,100.00
2022-10-05T21:13:07.484Z,100.00
2022-10-05T21:15:34.125Z,100.00
2022-10-05T21:18:00.730Z,100.00
2022-10-05T21:20:27.380Z,100.00
2022-10-05T21:22:54.035Z,100.00
2022-10-05T21:25:20.673Z,100.00
2022-10-05T21:27:48.678Z,100.00
2022-10-05T21:30:15.515Z,100.00
2022-10-05T21:32:44.574Z,100.00
2022-10-05T21:35:11.638Z,100.00
2022-10-05T21:37:38.300Z,100.00
2022-10-05T21:40:05.124Z,100.00
2022-10-05T21:42:31.786Z,100.00
2022-10-05T21:44:58.402Z,100.00
2022-10-05T21:47:25.539Z,100.00
2022-10-05T21:49:52.191Z,100.00
2022-10-05T21:52:18.895Z,100.00
2022-10-05T21:54:45.821Z,100.00
2022-10-05T21:57:12.775Z,100.00
2022-10-05T21:59:40.408Z,100.00
2022-10-05T22:02:07.280Z,100.00
2022-10-05T22:04:33.944Z,100.00
2022-10-05T22:07:01.224Z,100.00
2022-10-05T22:09:27.924Z,100.00
2022-10-05T22:11:54.971Z,100.00
2022-10-05T22:14:21.697Z,100.00
2022-10-05T22:16:48.433Z,100.00
2022-10-05T22:19:17.632Z,100.00
2022-10-05T22:21:44.323Z,100.00
2022-10-05T22:24:11.731Z,100.00
2022-10-05T22:26:39.352Z,100.00
2022-10-05T22:29:06.049Z,100.00
2022-10-05T22:31:32.815Z,100.00
2022-10-05T22:33:59.511Z,100.00
2022-10-05T22:36:26.206Z,100.00
2022-10-05T22:38:52.773Z,100.00
2022-10-05T22:41:19.457Z,100.00
2022-10-05T22:43:50.757Z,100.00
2022-10-05T22:46:18.304Z,100.00
2022-10-05T22:48:44.997Z,100.00
2022-10-05T22:51:11.600Z,100.00
2022-10-05T22:53:38.241Z,100.00
2022-10-05T22:56:09.251Z,100.00
2022-10-05T22:58:36.644Z,100.00
2022-10-05T23:01:05.165Z,100.00
2022-10-05T23:03:31.919Z,100.00
2022-10-05T23:06:03.618Z,100.00
2022-10-05T23:08:31.215Z,100.00
2022-10-05T23:11:17.706Z,100.00
2022-10-05T23:13:44.391Z,100.00
2022-10-05T23:16:12.600Z,100.00
2022-10-05T23:18:39.767Z,100.00
2022-10-05T23:21:09.798Z,100.00
2022-10-05T23:23:37.416Z,100.00
2022-10-05T23:26:05.195Z,100.00
2022-10-05T23:28:32.235Z,100.00
2022-10-05T23:31:03.848Z,100.00
2022-10-05T23:33:30.820Z,100.00
2022-10-05T23:36:01.754Z,100.00
2022-10-05T23:38:28.840Z,100.00
2022-10-05T23:40:56.297Z,100.00
2022-10-05T23:43:22.934Z,100.00
2022-10-05T23:45:49.629Z,100.00
2022-10-05T23:48:16.329Z,100.00
2022-10-05T23:50:45.519Z,100.00
2022-10-05T23:53:12.552Z,100.00
2022-10-05T23:55:39.205Z,100.00
2022-10-05T23:58:05.815Z,100.00
